Time;durP1;ratioP1;P1;durP2;ratioP2;P2;SDS_P1;SDS_P2;PMS_P1;PMS_P2;Temp;Humidity;BMP_temperature;BMP_pressure;BME280_temperature;BME280_humidity;BME280_pressure;Samples;Min_cycle;Max_cycle;Signal;HPM_P1;HPM_P2
2022/08/28 00:01:47;;;;;;;22.73;18.55;;;23.30;99.90;;;;;;6214463;23;20024;-79
2022/08/28 00:04:13;;;;;;;23.05;18.48;;;23.30;99.90;;;;;;6213733;23;20009;-79
2022/08/28 00:06:39;;;;;;;22.58;18.17;;;23.30;99.90;;;;;;6214407;23;19993;-79
2022/08/28 00:09:06;;;;;;;21.30;16.95;;;23.30;99.90;;;;;;6213752;23;20001;-79
2022/08/28 00:11:36;;;;;;;20.45;18.35;;;23.30;99.90;;;;;;6212447;23;20012;-78
2022/08/28 00:14:03;;;;;;;21.08;18.10;;;23.30;99.90;;;;;;6212252;23;20005;-79
2022/08/28 00:16:30;;;;;;;21.60;17.58;;;23.30;99.90;;;;;;6214204;23;20470;-78
2022/08/28 00:18:56;;;;;;;20.40;18.27;;;23.30;99.90;;;;;;6213339;23;20080;-78
2022/08/28 00:21:23;;;;;;;24.52;18.52;;;23.30;99.90;;;;;;6213901;23;20036;-78
2022/08/28 00:23:49;;;;;;;20.85;18.42;;;23.30;99.90;;;;;;6211816;23;20028;-79
2022/08/28 00:27:51;;;;;;;21.23;17.92;;;23.30;99.90;;;;;;6212772;23;20012;-77
2022/08/28 00:29:01;;;;;;;25.33;18.25;;;23.30;99.90;;;;;;6213247;23;20005;-78
2022/08/28 00:31:26;;;;;;;21.25;19.08;;;23.30;99.90;;;;;;6214372;23;20427;-78
2022/08/28 00:33:52;;;;;;;25.23;18.65;;;23.30;99.90;;;;;;6211933;23;20004;-78
2022/08/28 00:36:18;;;;;;;22.48;18.63;;;23.30;99.90;;;;;;6213715;23;20034;-78
2022/08/28 00:38:44;;;;;;;26.83;19.83;;;23.30;99.90;;;;;;6213396;23;20004;-78
2022/08/28 00:41:11;;;;;;;25.67;19.38;;;23.30;99.90;;;;;;6214031;23;20269;-78
2022/08/28 00:43:46;;;;;;;21.88;19.17;;;23.30;99.90;;;;;;6213544;23;20367;-78
2022/08/28 00:46:22;;;;;;;25.52;20.25;;;23.30;99.90;;;;;;6213813;23;20032;-79
2022/08/28 00:48:49;;;;;;;26.65;20.02;;;23.30;99.90;;;;;;6213479;23;20076;-78
2022/08/28 00:54:03;;;;;;;24.20;19.15;;;23.30;99.90;;;;;;6212310;23;20455;-78
2022/08/28 00:56:30;;;;;;;23.83;19.73;;;23.30;99.90;;;;;;6213905;23;20007;-78
2022/08/28 00:59:01;;;;;;;25.48;19.77;;;23.20;99.90;;;;;;6211332;23;20005;-78
2022/08/28 01:01:27;;;;;;;31.98;21.50;;;23.20;99.90;;;;;;6213751;23;20026;-78
2022/08/28 01:03:53;;;;;;;23.50;21.10;;;23.20;99.90;;;;;;6211765;23;20005;-78
2022/08/28 01:06:19;;;;;;;24.05;21.13;;;23.20;99.90;;;;;;6211413;23;20506;-78
2022/08/28 01:08:47;;;;;;;25.85;20.48;;;23.10;99.90;;;;;;6211901;23;20000;-78
2022/08/28 01:11:15;;;;;;;25.88;20.88;;;23.10;99.90;;;;;;6213924;23;20028;-78
2022/08/28 01:13:47;;;;;;;23.52;21.17;;;23.10;99.90;;;;;;6212877;23;20012;-78
2022/08/28 01:16:15;;;;;;;27.35;20.48;;;23.20;99.90;;;;;;6213806;23;20008;-78
2022/08/28 01:18:42;;;;;;;24.45;19.70;;;23.20;99.90;;;;;;6211646;23;20015;-78
2022/08/28 01:21:35;;;;;;;24.08;20.77;;;23.20;99.90;;;;;;6211812;23;20047;-78
2022/08/28 01:24:11;;;;;;;28.13;21.92;;;23.10;99.90;;;;;;6212571;23;20035;-78
2022/08/28 01:26:37;;;;;;;26.35;21.42;;;23.10;99.90;;;;;;6212285;23;20656;-78
2022/08/28 01:29:03;;;;;;;26.70;21.10;;;23.00;99.90;;;;;;6213464;23;19997;-77
2022/08/28 01:31:30;;;;;;;23.08;20.80;;;23.00;99.90;;;;;;6213060;23;20076;-77
2022/08/28 01:33:58;;;;;;;23.30;20.35;;;22.90;99.90;;;;;;6212675;23;20001;-78
2022/08/28 01:36:24;;;;;;;28.60;21.60;;;22.90;99.90;;;;;;6213605;23;20033;-77
2022/08/28 01:38:55;;;;;;;30.60;22.17;;;22.80;99.90;;;;;;6213034;23;20004;-77
2022/08/28 01:41:20;;;;;;;24.25;21.63;;;22.80;99.90;;;;;;6213142;23;20001;-78
2022/08/28 01:43:47;;;;;;;27.05;22.25;;;22.80;99.90;;;;;;6211380;23;20005;-77
2022/08/28 01:46:13;;;;;;;25.20;21.27;;;22.80;99.90;;;;;;6213392;23;20001;-77
2022/08/28 01:48:42;;;;;;;25.70;21.77;;;22.80;99.90;;;;;;6212935;23;20016;-77
2022/08/28 01:51:10;;;;;;;28.45;23.08;;;22.70;99.90;;;;;;6211350;23;20016;-77
2022/08/28 01:53:36;;;;;;;31.33;22.52;;;22.70;99.90;;;;;;6213054;23;20558;-77
2022/08/28 01:56:06;;;;;;;25.27;22.27;;;22.70;99.90;;;;;;6213468;23;20074;-78
2022/08/28 01:58:32;;;;;;;27.92;23.05;;;22.60;99.90;;;;;;6212885;23;20007;-77
2022/08/28 02:00:58;;;;;;;31.33;22.92;;;22.60;99.90;;;;;;6213175;23;20005;-77
2022/08/28 02:03:24;;;;;;;29.15;22.77;;;22.60;99.90;;;;;;6211291;23;20023;-78
2022/08/28 02:05:49;;;;;;;24.98;22.30;;;22.60;99.90;;;;;;6211297;23;20008;-78
2022/08/28 02:08:15;;;;;;;31.08;22.92;;;22.60;99.90;;;;;;6210253;23;20001;-78
2022/08/28 02:10:42;;;;;;;25.63;23.02;;;22.50;99.90;;;;;;6213405;23;20031;-78
2022/08/28 02:13:10;;;;;;;28.10;22.75;;;22.50;99.90;;;;;;6212671;23;20155;-77
2022/08/28 02:15:37;;;;;;;28.15;22.67;;;22.50;99.90;;;;;;6211220;23;20001;-78
2022/08/28 02:18:04;;;;;;;28.50;23.95;;;22.50;99.90;;;;;;6212563;23;20021;-77
2022/08/28 02:20:30;;;;;;;25.95;23.05;;;22.40;99.90;;;;;;6213195;23;20059;-76
2022/08/28 02:22:57;;;;;;;26.30;23.17;;;22.40;99.90;;;;;;6210933;23;20080;-76
2022/08/28 02:25:23;;;;;;;29.75;22.25;;;22.40;99.90;;;;;;6211443;23;20091;-77
2022/08/28 02:27:49;;;;;;;25.67;22.67;;;22.40;99.90;;;;;;6210565;23;20507;-78
2022/08/28 02:30:16;;;;;;;29.70;22.92;;;22.40;99.90;;;;;;6213437;23;20047;-78
2022/08/28 02:32:43;;;;;;;25.42;22.73;;;22.30;99.90;;;;;;6212391;23;20368;-77
2022/08/28 02:35:11;;;;;;;28.77;24.33;;;22.30;99.90;;;;;;6211533;23;20011;-78
2022/08/28 02:37:38;;;;;;;29.25;24.05;;;22.30;99.90;;;;;;6211129;23;20119;-77
2022/08/28 02:40:05;;;;;;;26.67;23.67;;;22.30;99.90;;;;;;6213377;23;20458;-77
2022/08/28 02:42:30;;;;;;;30.15;24.63;;;22.30;99.90;;;;;;6211107;23;20012;-78
2022/08/28 02:44:57;;;;;;;28.52;25.60;;;22.20;99.90;;;;;;6211132;23;20329;-77
2022/08/28 02:47:23;;;;;;;34.63;25.05;;;22.20;99.90;;;;;;6210365;23;20071;-77
2022/08/28 02:49:48;;;;;;;25.73;23.05;;;22.20;99.90;;;;;;6212872;23;20008;-77
2022/08/28 02:52:14;;;;;;;27.17;24.30;;;22.20;99.90;;;;;;6212112;23;20084;-77
2022/08/28 02:54:46;;;;;;;27.27;24.33;;;22.10;99.90;;;;;;6212401;23;20015;-76
2022/08/28 02:57:13;;;;;;;30.05;25.65;;;22.10;99.90;;;;;;6212516;23;20000;-77
2022/08/28 02:59:38;;;;;;;33.35;24.50;;;22.10;99.90;;;;;;6212785;23;20004;-78
2022/08/28 03:02:06;;;;;;;33.20;24.92;;;22.10;99.90;;;;;;6212619;23;20007;-78
2022/08/28 03:04:36;;;;;;;29.55;24.50;;;22.10;99.90;;;;;;6212076;23;20066;-78
2022/08/28 03:07:03;;;;;;;29.45;24.77;;;22.10;99.90;;;;;;6212552;23;20007;-77
2022/08/28 03:09:29;;;;;;;29.92;24.52;;;22.00;99.90;;;;;;6212475;23;20514;-77
2022/08/28 03:11:55;;;;;;;27.33;24.50;;;22.00;99.90;;;;;;6212122;23;19996;-77
2022/08/28 03:14:21;;;;;;;29.08;25.83;;;22.00;99.90;;;;;;6212226;23;20008;-77
2022/08/28 03:16:48;;;;;;;31.35;24.58;;;22.10;99.90;;;;;;6212767;23;20012;-77
2022/08/28 03:19:14;;;;;;;32.70;24.15;;;22.10;99.90;;;;;;6212173;23;20448;-77
2022/08/28 03:21:40;;;;;;;29.00;24.33;;;22.10;99.90;;;;;;6212740;23;20004;-77
2022/08/28 03:24:06;;;;;;;26.75;24.08;;;22.20;99.90;;;;;;6210660;23;20010;-77
2022/08/28 03:26:32;;;;;;;28.17;23.67;;;22.20;99.90;;;;;;6211295;23;20005;-77
2022/08/28 03:28:58;;;;;;;25.35;22.83;;;22.20;99.90;;;;;;6210306;23;19996;-78
2022/08/28 03:31:26;;;;;;;30.20;23.83;;;22.20;99.90;;;;;;6212879;23;20028;-77
2022/08/28 03:33:53;;;;;;;28.10;24.33;;;22.20;99.90;;;;;;6212363;23;20076;-76
2022/08/28 03:36:22;;;;;;;31.52;24.42;;;22.20;99.90;;;;;;6212671;23;20055;-77
2022/08/28 03:38:49;;;;;;;29.98;24.63;;;22.10;99.90;;;;;;6212349;23;20369;-77
2022/08/28 03:41:17;;;;;;;25.98;23.23;;;22.10;99.90;;;;;;6210688;23;20005;-77
2022/08/28 03:43:43;;;;;;;28.17;24.63;;;22.10;99.90;;;;;;6212019;23;20080;-77
2022/08/28 03:46:14;;;;;;;31.98;25.15;;;22.00;99.90;;;;;;6212492;23;20074;-77
2022/08/28 03:48:40;;;;;;;30.63;24.35;;;22.00;99.90;;;;;;6212235;23;20360;-76
2022/08/28 03:51:14;;;;;;;30.08;25.10;;;22.00;99.90;;;;;;6210799;23;20092;-77
2022/08/28 03:53:40;;;;;;;27.73;24.77;;;22.00;99.90;;;;;;6211919;23;20028;-77
2022/08/28 03:56:12;;;;;;;31.42;24.30;;;22.00;99.90;;;;;;6212725;23;20004;-77
2022/08/28 03:58:40;;;;;;;30.27;25.98;;;22.00;99.90;;;;;;6213571;23;20005;-79
2022/08/28 04:01:06;;;;;;;29.25;24.70;;;22.00;99.90;;;;;;6212644;23;20005;-77
2022/08/28 04:03:32;;;;;;;30.52;25.08;;;22.00;99.90;;;;;;6212355;23;20011;-75
2022/08/28 04:05:58;;;;;;;30.48;24.58;;;21.90;99.90;;;;;;6213516;23;20474;-77
2022/08/28 04:08:24;;;;;;;27.90;24.95;;;22.00;99.90;;;;;;6213895;23;19997;-77
2022/08/28 04:10:50;;;;;;;32.72;25.88;;;21.90;99.90;;;;;;6214357;23;20431;-77
2022/08/28 04:13:18;;;;;;;31.02;24.90;;;22.00;99.90;;;;;;6212048;23;20482;-77
2022/08/28 04:15:44;;;;;;;28.13;23.80;;;21.90;99.90;;;;;;6214441;23;20332;-77
2022/08/28 04:18:10;;;;;;;31.25;24.80;;;21.90;99.90;;;;;;6211623;23;20413;-77
2022/08/28 04:20:37;;;;;;;29.00;25.05;;;22.00;99.90;;;;;;6212809;23;20007;-77
2022/08/28 04:23:06;;;;;;;29.55;25.15;;;21.90;99.90;;;;;;6213317;23;20462;-77
2022/08/28 04:25:32;;;;;;;27.58;23.95;;;22.00;99.90;;;;;;6212734;23;20055;-77
2022/08/28 04:27:59;;;;;;;27.42;24.50;;;22.00;99.90;;;;;;6214034;23;19997;-77
2022/08/28 04:30:25;;;;;;;27.88;24.05;;;22.00;99.90;;;;;;6214560;23;20005;-76
2022/08/28 04:32:51;;;;;;;29.35;26.23;;;22.00;99.90;;;;;;6213683;23;20082;-77
2022/08/28 04:35:17;;;;;;;28.55;24.55;;;22.00;99.90;;;;;;6211879;23;20008;-77
2022/08/28 04:37:42;;;;;;;28.45;24.48;;;22.00;99.90;;;;;;6213696;23;20459;-77
2022/08/28 04:40:11;;;;;;;31.60;24.60;;;22.00;99.90;;;;;;6212399;23;20009;-78
2022/08/28 04:42:38;;;;;;;28.75;24.23;;;22.10;99.90;;;;;;6213109;23;20001;-78
2022/08/28 04:45:05;;;;;;;26.67;23.08;;;22.10;99.90;;;;;;6213983;23;20012;-77
2022/08/28 04:47:35;;;;;;;38.70;24.58;;;22.20;99.90;;;;;;6213361;23;20035;-78
2022/08/28 04:50:02;;;;;;;24.80;22.20;;;22.30;99.90;;;;;;6213926;23;20339;-78
2022/08/28 04:52:28;;;;;;;35.13;22.83;;;22.30;99.90;;;;;;6213027;23;20005;-78
2022/08/28 04:54:54;;;;;;;26.70;21.95;;;22.30;99.90;;;;;;6213940;23;20508;-78
2022/08/28 04:57:20;;;;;;;24.67;22.15;;;22.40;99.90;;;;;;6212031;23;20096;-78
2022/08/28 04:59:46;;;;;;;23.85;21.25;;;22.40;99.90;;;;;;6211881;23;20104;-77
2022/08/28 05:02:12;;;;;;;26.90;22.02;;;22.50;99.90;;;;;;6213535;23;20016;-78
2022/08/28 05:04:38;;;;;;;23.48;20.92;;;22.50;99.90;;;;;;6213630;23;20017;-78
2022/08/28 05:07:03;;;;;;;28.08;21.70;;;22.60;99.90;;;;;;6213547;23;20023;-77
2022/08/28 05:09:30;;;;;;;24.55;22.08;;;22.60;99.90;;;;;;6213463;23;20015;-78
2022/08/28 05:12:01;;;;;;;23.80;20.77;;;22.60;99.90;;;;;;6212228;23;20380;-78
2022/08/28 05:14:27;;;;;;;23.23;19.35;;;22.70;99.90;;;;;;6213781;23;20340;-77
2022/08/28 05:16:54;;;;;;;24.13;19.83;;;22.70;99.90;;;;;;6212252;23;20091;-77
2022/08/28 05:19:20;;;;;;;24.65;19.20;;;22.80;99.90;;;;;;6211374;23;20043;-78
2022/08/28 05:21:46;;;;;;;26.92;19.90;;;22.90;99.90;;;;;;6213689;23;20052;-78
2022/08/28 05:24:12;;;;;;;21.35;19.10;;;23.10;99.90;;;;;;6211515;23;20036;-78
2022/08/28 05:26:38;;;;;;;25.55;18.45;;;23.10;99.90;;;;;;6213688;23;20005;-77
2022/08/28 05:29:05;;;;;;;21.10;17.73;;;23.20;99.90;;;;;;6212786;23;20008;-77
2022/08/28 05:31:32;;;;;;;22.50;16.98;;;23.30;99.90;;;;;;6211901;23;20332;-77
2022/08/28 05:33:59;;;;;;;24.58;19.45;;;23.30;99.90;;;;;;6212947;23;20005;-77
2022/08/28 05:36:26;;;;;;;22.27;18.42;;;23.40;99.90;;;;;;6213526;23;20008;-77
2022/08/28 05:38:55;;;;;;;21.05;16.60;;;23.40;99.90;;;;;;6212962;23;20001;-77
2022/08/28 05:41:24;;;;;;;21.45;17.08;;;23.40;99.90;;;;;;6213354;23;20007;-77
2022/08/28 05:43:52;;;;;;;23.33;15.57;;;23.50;99.90;;;;;;6212698;23;20016;-76
2022/08/28 05:46:19;;;;;;;16.90;15.05;;;23.50;99.90;;;;;;6213705;23;20015;-76
2022/08/28 05:48:47;;;;;;;23.77;16.17;;;23.70;99.90;;;;;;6210954;23;20050;-76
2022/08/28 05:51:18;;;;;;;20.02;15.15;;;23.70;99.90;;;;;;6213392;23;20008;-76
2022/08/28 05:53:45;;;;;;;17.07;15.13;;;23.80;99.90;;;;;;6211764;23;20001;-76
2022/08/28 05:56:16;;;;;;;18.33;14.30;;;23.90;99.90;;;;;;6213450;23;20366;-77
2022/08/28 05:58:42;;;;;;;21.58;15.15;;;24.00;99.90;;;;;;6210827;23;20083;-77
2022/08/28 06:01:15;;;;;;;19.42;13.82;;;24.00;99.90;;;;;;6213639;23;20039;-78
2022/08/28 06:03:44;;;;;;;16.67;13.88;;;24.00;99.90;;;;;;6211561;23;20335;-77
2022/08/28 06:06:11;;;;;;;19.13;13.07;;;24.00;99.90;;;;;;6212873;23;20005;-78
2022/08/28 06:08:38;;;;;;;16.88;12.75;;;24.00;99.90;;;;;;6212816;23;20007;-77
2022/08/28 06:11:06;;;;;;;24.67;12.98;;;23.90;99.90;;;;;;6213267;23;20001;-78
2022/08/28 06:13:33;;;;;;;16.92;11.85;;;24.00;99.90;;;;;;6212854;23;20012;-78
2022/08/28 06:15:58;;;;;;;16.83;11.25;;;24.00;99.90;;;;;;6211196;23;20000;-78
2022/08/28 06:18:25;;;;;;;13.25;11.45;;;24.10;99.90;;;;;;6212625;23;20021;-77
2022/08/28 06:20:52;;;;;;;12.48;11.13;;;24.20;99.90;;;;;;6213487;23;20028;-78
2022/08/28 06:23:20;;;;;;;12.82;11.35;;;24.30;99.90;;;;;;6212684;23;20000;-77
2022/08/28 06:25:49;;;;;;;14.90;11.60;;;24.40;99.90;;;;;;6212670;23;20013;-77
2022/08/28 06:28:19;;;;;;;16.50;11.73;;;24.50;99.90;;;;;;6212573;23;20013;-77
2022/08/28 06:30:45;;;;;;;15.43;11.00;;;24.60;99.90;;;;;;6213194;23;20079;-77
2022/08/28 06:33:12;;;;;;;14.57;11.63;;;24.60;99.90;;;;;;6212310;23;20005;-77
2022/08/28 06:35:47;;;;;;;17.98;12.07;;;24.70;99.90;;;;;;6213153;23;20005;-77
2022/08/28 06:38:13;;;;;;;15.98;11.63;;;24.80;99.90;;;;;;6212438;23;19997;-77
2022/08/28 06:40:41;;;;;;;13.55;11.07;;;24.90;99.90;;;;;;6211301;23;20054;-77
2022/08/28 06:43:08;;;;;;;12.73;11.43;;;25.00;99.90;;;;;;6210482;23;20340;-77
2022/08/28 06:45:38;;;;;;;15.13;11.98;;;25.00;99.90;;;;;;6212873;23;20013;-77
2022/08/28 06:48:04;;;;;;;14.75;11.80;;;25.00;99.90;;;;;;6212730;23;20432;-78
2022/08/28 06:50:29;;;;;;;14.40;12.43;;;25.00;99.90;;;;;;6212480;23;20031;-78
2022/08/28 06:52:56;;;;;;;12.93;11.57;;;25.00;99.90;;;;;;6210669;23;20004;-78
2022/08/28 06:55:22;;;;;;;14.40;12.43;;;25.00;99.90;;;;;;6212738;23;19996;-79
2022/08/28 06:57:47;;;;;;;12.93;11.60;;;25.00;99.90;;;;;;6211024;23;20096;-78
2022/08/28 07:00:13;;;;;;;15.73;11.88;;;25.00;99.90;;;;;;6212883;23;20317;-78
2022/08/28 07:02:39;;;;;;;19.20;13.38;;;25.10;99.90;;;;;;6212197;23;20007;-80
2022/08/28 07:05:05;;;;;;;14.07;12.52;;;25.10;99.90;;;;;;6212573;23;20012;-79
2022/08/28 07:07:31;;;;;;;18.42;13.63;;;25.10;99.90;;;;;;6212366;23;20072;-78
2022/08/28 07:09:57;;;;;;;14.75;12.48;;;25.10;99.90;;;;;;6212490;23;20381;-78
2022/08/28 07:12:22;;;;;;;15.57;13.15;;;25.10;99.90;;;;;;6210988;23;20008;-77
2022/08/28 07:14:48;;;;;;;15.10;12.38;;;25.20;99.90;;;;;;6212914;23;20455;-79
2022/08/28 07:17:14;;;;;;;13.88;12.50;;;25.20;99.90;;;;;;6212149;23;20100;-78
2022/08/28 07:19:39;;;;;;;15.32;12.50;;;25.20;99.90;;;;;;6212597;23;20004;-77
2022/08/28 07:22:05;;;;;;;19.77;12.43;;;25.30;99.90;;;;;;6211947;23;20463;-77
2022/08/28 07:24:31;;;;;;;14.80;12.50;;;25.30;99.90;;;;;;6210661;23;20009;-77
2022/08/28 07:26:57;;;;;;;14.40;12.90;;;25.40;99.90;;;;;;6212790;23;20024;-79
2022/08/28 07:29:22;;;;;;;14.75;12.32;;;25.40;99.90;;;;;;6212716;23;20079;-78
2022/08/28 07:31:51;;;;;;;13.57;11.70;;;25.50;99.90;;;;;;6213360;23;20440;-77
2022/08/28 07:34:19;;;;;;;14.07;12.18;;;25.50;99.90;;;;;;6214469;23;20058;-82
2022/08/28 07:36:45;;;;;;;13.57;11.63;;;25.60;99.90;;;;;;6214794;23;20004;-79
2022/08/28 07:39:12;;;;;;;15.35;11.82;;;25.60;99.90;;;;;;6212736;23;20336;-78
2022/08/28 07:41:41;;;;;;;14.75;11.45;;;25.60;99.90;;;;;;6212955;23;20036;-81
2022/08/28 07:46:54;;;;;;;17.63;11.82;;;25.70;99.90;;;;;;6214137;23;20011;-77
2022/08/28 07:49:21;;;;;;;13.98;11.70;;;25.70;99.90;;;;;;6214152;23;20076;-79
2022/08/28 07:51:47;;;;;;;16.13;12.02;;;25.70;99.90;;;;;;6213146;23;20028;-77
2022/08/28 07:54:13;;;;;;;18.40;11.45;;;25.70;99.90;;;;;;6214014;23;20004;-77
2022/08/28 07:56:39;;;;;;;14.02;11.48;;;25.80;99.90;;;;;;6213226;23;20001;-78
2022/08/28 07:59:06;;;;;;;17.20;12.52;;;25.80;99.90;;;;;;6213677;23;20054;-78
2022/08/28 08:01:40;;;;;;;15.95;12.23;;;25.80;99.90;;;;;;6214616;23;20004;-78
2022/08/28 08:04:08;;;;;;;14.68;11.63;;;25.80;99.90;;;;;;6213236;23;20490;-78
2022/08/28 08:06:35;;;;;;;16.00;11.40;;;25.90;99.90;;;;;;6214264;23;20000;-77
2022/08/28 08:09:03;;;;;;;13.15;11.73;;;26.00;99.90;;;;;;6212344;23;20003;-77
2022/08/28 08:11:29;;;;;;;16.88;12.00;;;26.10;99.90;;;;;;6214440;23;20009;-77
2022/08/28 08:13:56;;;;;;;13.02;11.20;;;26.30;99.90;;;;;;6213677;23;20422;-77
2022/08/28 08:16:24;;;;;;;14.23;11.00;;;26.60;99.90;;;;;;6214100;23;20005;-77
2022/08/28 08:18:51;;;;;;;15.32;11.20;;;26.80;99.90;;;;;;6213602;23;20087;-78
2022/08/28 08:21:20;;;;;;;11.40;10.27;;;27.00;99.90;;;;;;6213892;23;20088;-78
2022/08/28 08:23:47;;;;;;;11.20;9.80;;;27.20;99.90;;;;;;6213682;23;20001;-77
2022/08/28 08:26:18;;;;;;;14.60;9.95;;;27.40;99.90;;;;;;6214234;23;20016;-78
2022/08/28 08:28:44;;;;;;;11.65;9.57;;;27.50;99.90;;;;;;6213513;23;20001;-78
2022/08/28 08:31:12;;;;;;;16.50;10.32;;;27.60;99.90;;;;;;6214224;23;20008;-78
2022/08/28 08:33:42;;;;;;;11.20;9.60;;;27.70;99.90;;;;;;6213660;23;20028;-78
2022/08/28 08:36:11;;;;;;;13.35;10.00;;;27.80;99.90;;;;;;6211912;23;20448;-79
2022/08/28 08:38:37;;;;;;;10.85;9.18;;;27.80;99.90;;;;;;6211403;23;20090;-78
2022/08/28 08:41:29;;;;;;;12.15;9.30;;;27.80;99.90;;;;;;6214098;23;19997;-78
2022/08/28 08:44:24;;;;;;;11.88;10.73;;;27.60;99.90;;;;;;6200083;23;20102;-81
2022/08/28 08:47:10;;;;;;;11.38;10.05;;;27.50;99.90;;;;;;6181419;23;20399;-78
2022/08/28 08:49:39;;;;;;;11.30;9.20;;;27.50;99.90;;;;;;6213962;23;20011;-79
2022/08/28 08:52:18;;;;;;;14.23;9.65;;;27.40;99.90;;;;;;6213246;23;20020;-79
2022/08/28 08:55:06;;;;;;;11.55;9.30;;;27.40;99.90;;;;;;6212277;23;20001;-78
2022/08/28 08:57:34;;;;;;;14.90;10.00;;;27.40;99.90;;;;;;6212943;23;19993;-78
2022/08/28 09:00:11;;;;;;;12.50;8.50;;;27.50;99.90;;;;;;6212629;23;20028;-78
2022/08/28 09:02:43;;;;;;;11.20;8.70;;;27.50;99.90;;;;;;6211615;23;20007;-78
2022/08/28 09:05:14;;;;;;;12.82;8.43;;;27.50;99.90;;;;;;6213571;23;20070;-78
2022/08/28 09:08:01;;;;;;;10.77;8.88;;;27.60;99.90;;;;;;6213645;23;20000;-78
2022/08/28 09:10:37;;;;;;;9.77;8.40;;;27.70;99.90;;;;;;6213805;23;20000;-79
2022/08/28 09:13:40;;;;;;;9.98;7.00;;;28.00;99.90;;;;;;6212803;23;20341;-78
2022/08/28 09:16:22;;;;;;;15.13;7.45;;;28.10;99.90;;;;;;6207658;23;20004;-79
2022/08/28 09:18:49;;;;;;;;;;;28.00;99.90;;;;;;6213994;23;20024;-80
2022/08/28 09:21:24;;;;;;;8.93;7.65;;;27.90;99.90;;;;;;6213749;23;20229;-79
2022/08/28 09:23:53;;;;;;;14.13;9.38;;;27.80;99.90;;;;;;6211512;23;20503;-76
2022/08/28 09:26:23;;;;;;;10.27;8.48;;;27.60;99.90;;;;;;6213502;23;20380;-77
2022/08/28 09:29:03;;;;;;;12.35;8.45;;;27.30;99.90;;;;;;6213397;23;20000;-78
2022/08/28 09:31:33;;;;;;;13.45;8.65;;;27.10;99.90;;;;;;6211856;23;20004;-81
2022/08/28 09:34:25;;;;;;;13.60;8.38;;;27.00;99.90;;;;;;6211433;23;20359;-78
2022/08/28 09:36:52;;;;;;;;;;;26.80;99.90;;;;;;6213974;23;20001;-77
2022/08/28 09:39:21;;;;;;;8.85;7.95;;;26.80;99.90;;;;;;6211854;23;19900;-77
2022/08/28 09:44:48;;;;;;;9.15;7.88;;;26.90;99.90;;;;;;6213551;23;20023;-77
2022/08/28 09:47:48;;;;;;;12.90;9.07;;;26.90;99.90;;;;;;6211784;23;20365;-76
2022/08/28 09:50:30;;;;;;;14.57;8.43;;;27.00;99.90;;;;;;6212703;23;20054;-75
2022/08/28 09:53:12;;;;;;;13.77;9.60;;;27.10;99.90;;;;;;6210672;23;20036;-78
2022/08/28 09:55:47;;;;;;;12.32;8.57;;;27.10;99.90;;;;;;6212202;23;20405;-78
2022/08/28 09:58:13;;;;;;;16.02;8.65;;;27.10;99.90;;;;;;6211275;23;20058;-76
2022/08/28 10:00:47;;;;;;;11.02;9.45;;;27.00;99.90;;;;;;6213470;23;20004;-75
2022/08/28 10:03:20;;;;;;;11.85;9.05;;;26.80;99.90;;;;;;6212919;23;20047;-76
2022/08/28 10:05:48;;;;;;;11.38;7.78;;;26.70;99.90;;;;;;6213068;23;20085;-76
2022/08/28 10:08:28;;;;;;;10.20;7.53;;;26.70;99.90;;;;;;6210473;23;20015;-76
2022/08/28 10:11:02;;;;;;;10.10;6.13;;;27.00;99.90;;;;;;6213247;23;20381;-76
2022/08/28 10:13:34;;;;;;;6.85;5.97;;;27.20;99.90;;;;;;6212632;23;20015;-76
2022/08/28 10:16:27;;;;;;;9.32;6.55;;;27.50;99.90;;;;;;6213573;23;20033;-76
2022/08/28 10:19:03;;;;;;;6.75;6.10;;;27.70;99.90;;;;;;6168019;23;20027;-75
2022/08/28 10:21:50;;;;;;;9.75;6.20;;;27.90;99.90;;;;;;6213623;23;20439;-75
2022/08/28 10:24:39;;;;;;;8.82;5.90;;;28.10;99.90;;;;;;6210590;23;20277;-76
2022/08/28 10:27:38;;;;;;;7.80;5.97;;;28.20;99.90;;;;;;6212682;23;20001;-80
2022/08/28 10:30:06;;;;;;;8.13;5.70;;;28.20;99.90;;;;;;6163072;23;20011;-76
2022/08/28 10:33:14;;;;;;;9.95;6.30;;;28.00;99.90;;;;;;6213185;23;20058;-75
2022/08/28 10:36:18;;;;;;;11.20;7.07;;;27.90;99.90;;;;;;6211397;23;20012;-75
2022/08/28 10:38:51;;;;;;;13.93;6.97;;;27.80;99.90;;;;;;6212715;23;20483;-73
2022/08/28 10:42:01;;;;;;;8.48;7.15;;;27.60;99.90;;;;;;6212869;23;19996;-73
2022/08/28 10:44:59;;;;;;;9.20;7.40;;;27.60;99.90;;;;;;6142608;23;20332;-76
2022/08/28 10:47:28;;;;;;;9.45;6.72;;;27.50;99.90;;;;;;6210956;23;20008;-73
2022/08/28 10:50:00;;;;;;;8.23;5.80;;;27.60;99.90;;;;;;6213061;23;20450;-73
2022/08/28 10:52:42;;;;;;;10.63;6.20;;;27.90;99.90;;;;;;6212872;23;20011;-74
2022/08/28 10:55:20;;;;;;;7.35;5.30;;;28.00;99.90;;;;;;6213054;23;20008;-73
2022/08/28 10:57:56;;;;;;;6.40;5.70;;;28.10;99.90;;;;;;6212692;23;20008;-74
2022/08/28 11:00:24;;;;;;;6.00;5.35;;;28.00;99.90;;;;;;6212421;23;20016;-75
2022/08/28 11:02:56;;;;;;;7.60;5.40;;;28.00;99.90;;;;;;6212024;23;20005;-74
2022/08/28 11:05:31;;;;;;;6.35;5.65;;;28.00;99.90;;;;;;6211188;23;20016;-77
2022/08/28 11:08:04;;;;;;;7.30;5.32;;;27.90;99.90;;;;;;6212525;23;20543;-75
2022/08/28 11:10:35;;;;;;;6.50;5.38;;;28.00;99.90;;;;;;6211597;23;20015;-75
2022/08/28 11:13:03;;;;;;;7.67;5.70;;;28.00;99.90;;;;;;6212789;23;20004;-75
2022/08/28 11:15:31;;;;;;;8.95;5.78;;;28.10;99.90;;;;;;6211289;23;20008;-75
2022/08/28 11:18:17;;;;;;;9.48;6.30;;;28.10;99.90;;;;;;6210461;23;20024;-76
2022/08/28 11:21:29;;;;;;;7.72;5.03;;;28.10;99.90;;;;;;6213032;23;20062;-75
2022/08/28 11:23:57;;;;;;;10.27;5.50;;;28.20;99.90;;;;;;6180933;23;20004;-76
2022/08/28 11:26:48;;;;;;;4.25;3.83;;;28.30;99.90;;;;;;6211316;23;20375;-75
2022/08/28 11:30:00;;;;;;;9.70;6.47;;;28.50;99.90;;;;;;6191432;23;20001;-76
2022/08/28 11:32:32;;;;;;;13.13;7.90;;;28.70;99.90;;;;;;6211131;23;20030;-77
2022/08/28 11:35:05;;;;;;;8.18;6.65;;;28.70;99.90;;;;;;6211236;23;20004;-74
2022/08/28 11:37:44;;;;;;;6.80;5.70;;;28.60;99.90;;;;;;6212175;23;19993;-74
2022/08/28 11:40:39;;;;;;;11.20;6.45;;;28.50;99.90;;;;;;6212566;23;20005;-74
2022/08/28 11:43:14;;;;;;;8.02;5.65;;;28.30;99.90;;;;;;6196191;23;20015;-74
2022/08/28 11:45:45;;;;;;;9.45;6.47;;;27.90;99.90;;;;;;6212818;23;20009;-74
2022/08/28 11:48:36;;;;;;;8.00;6.43;;;27.80;99.90;;;;;;6212555;23;20005;-75
2022/08/28 11:51:07;;;;;;;12.50;6.30;;;27.80;99.90;;;;;;6212904;23;20001;-75
2022/08/28 11:53:36;;;;;;;14.20;7.53;;;27.90;99.90;;;;;;6212466;23;20011;-74
2022/08/28 11:56:28;;;;;;;8.25;7.05;;;27.80;99.90;;;;;;6212564;23;20000;-75
2022/08/28 11:59:38;;;;;;;10.73;6.80;;;27.80;99.90;;;;;;6195581;23;20004;-74
2022/08/28 12:02:42;;;;;;;13.73;8.10;;;27.80;99.90;;;;;;6212724;23;20056;-73
2022/08/28 12:05:13;;;;;;;9.07;6.97;;;27.80;99.90;;;;;;6212737;23;20013;-75
2022/08/28 12:07:46;;;;;;;11.57;8.15;;;27.80;99.90;;;;;;6212297;23;20446;-76
2022/08/28 12:10:25;;;;;;;11.20;7.13;;;27.80;99.90;;;;;;6211244;23;20009;-74
2022/08/28 12:12:55;;;;;;;18.58;9.43;;;28.50;99.90;;;;;;6214186;23;20519;-76
2022/08/28 12:15:26;;;;;;;14.77;7.03;;;29.90;99.90;;;;;;6213311;23;20005;-75
2022/08/28 12:18:00;;;;;;;12.38;7.82;;;30.20;99.90;;;;;;6214261;23;20012;-71
2022/08/28 12:20:44;;;;;;;15.80;7.00;;;29.80;99.90;;;;;;6214372;23;20432;-72
2022/08/28 12:23:22;;;;;;;11.00;7.97;;;29.50;99.90;;;;;;6213677;23;19996;-72
2022/08/28 12:25:50;;;;;;;15.05;8.68;;;29.70;99.90;;;;;;6214501;23;20439;-72
2022/08/28 12:28:27;;;;;;;9.95;6.05;;;31.30;99.90;;;;;;6213989;23;20003;-73
2022/08/28 12:34:39;;;;;;;16.23;7.13;;;33.90;99.90;;;;;;6213433;23;20605;-73
2022/08/28 12:37:22;;;;;;;13.18;5.57;;;34.80;99.90;;;;;;6213932;23;20004;-72
2022/08/28 12:39:48;;;;;;;12.27;5.40;;;34.80;99.90;;;;;;6214364;23;20515;-72
2022/08/28 12:42:17;;;;;;;9.77;5.53;;;34.70;99.90;;;;;;6214105;23;20031;-73
2022/08/28 12:44:45;;;;;;;12.32;5.68;;;35.20;99.90;;;;;;6212690;23;20051;-73
2022/08/28 12:47:16;;;;;;;9.32;6.18;;;36.00;99.90;;;;;;6214040;23;20008;-72
2022/08/28 12:49:42;;;;;;;10.48;7.10;;;36.40;99.90;;;;;;6213589;23;20012;-72
2022/08/28 12:52:17;;;;;;;10.43;5.30;;;36.10;99.90;;;;;;6213612;23;20005;-73
2022/08/28 12:54:49;;;;;;;20.90;7.32;;;36.20;99.90;;;;;;6213969;23;20432;-73
2022/08/28 12:57:22;;;;;;;14.93;6.97;;;36.80;99.90;;;;;;6213963;23;20005;-73
2022/08/28 12:59:53;;;;;;;11.43;9.27;;;36.20;99.70;;;;;;6212651;23;20035;-72
2022/08/28 13:02:32;;;;;;;12.75;8.07;;;34.70;99.90;;;;;;6213659;23;20001;-73
2022/08/28 13:05:06;;;;;;;10.98;6.20;;;33.80;99.90;;;;;;6213970;23;20351;-72